sensor_id;sensor_type;location;lat;lon;timestamp;P1;durP1;ratioP1;P2;durP2;ratioP2
69087;SDS011;56190;43.562;5.036;2023-11-19T00:00:43;9.23;;;5.70;;
69087;SDS011;56190;43.562;5.036;2023-11-19T00:03:08;7.32;;;5.47;;
69087;SDS011;56190;43.562;5.036;2023-11-19T00:05:33;8.63;;;5.72;;
69087;SDS011;56190;43.562;5.036;2023-11-19T00:07:59;7.13;;;6.00;;
69087;SDS011;56190;43.562;5.036;2023-11-19T00:10:24;8.30;;;5.90;;
69087;SDS011;56190;43.562;5.036;2023-11-19T00:12:50;8.77;;;5.80;;
69087;SDS011;56190;43.562;5.036;2023-11-19T00:15:15;7.88;;;5.15;;
69087;SDS011;56190;43.562;5.036;2023-11-19T00:17:41;9.23;;;5.45;;
69087;SDS011;56190;43.562;5.036;2023-11-19T00:20:13;7.07;;;5.40;;
69087;SDS011;56190;43.562;5.036;2023-11-19T00:22:39;7.10;;;5.10;;
69087;SDS011;56190;43.562;5.036;2023-11-19T00:25:05;6.75;;;4.40;;
69087;SDS011;56190;43.562;5.036;2023-11-19T00:27:30;5.65;;;4.70;;
69087;SDS011;56190;43.562;5.036;2023-11-19T00:29:56;7.35;;;4.88;;
69087;SDS011;56190;43.562;5.036;2023-11-19T00:32:22;7.35;;;4.50;;
69087;SDS011;56190;43.562;5.036;2023-11-19T00:34:47;7.43;;;5.07;;
69087;SDS011;56190;43.562;5.036;2023-11-19T00:37:13;6.85;;;5.10;;
69087;SDS011;56190;43.562;5.036;2023-11-19T00:39:38;5.97;;;4.97;;
69087;SDS011;56190;43.562;5.036;2023-11-19T00:42:03;8.80;;;5.35;;
69087;SDS011;56190;43.562;5.036;2023-11-19T00:44:29;6.32;;;5.25;;
69087;SDS011;56190;43.562;5.036;2023-11-19T00:46:54;8.27;;;5.35;;
69087;SDS011;56190;43.562;5.036;2023-11-19T00:49:19;7.82;;;4.80;;
69087;SDS011;56190;43.562;5.036;2023-11-19T00:51:44;7.55;;;4.90;;
69087;SDS011;56190;43.562;5.036;2023-11-19T00:54:10;7.00;;;5.07;;
69087;SDS011;56190;43.562;5.036;2023-11-19T00:56:38;6.03;;;4.57;;
69087;SDS011;56190;43.562;5.036;2023-11-19T00:59:04;6.45;;;5.20;;
69087;SDS011;56190;43.562;5.036;2023-11-19T01:01:30;8.60;;;5.68;;
69087;SDS011;56190;43.562;5.036;2023-11-19T01:03:55;9.38;;;6.03;;
69087;SDS011;56190;43.562;5.036;2023-11-19T01:06:28;6.78;;;5.50;;
69087;SDS011;56190;43.562;5.036;2023-11-19T01:08:54;6.43;;;5.30;;
69087;SDS011;56190;43.562;5.036;2023-11-19T01:11:20;8.32;;;5.80;;
69087;SDS011;56190;43.562;5.036;2023-11-19T01:13:46;7.63;;;5.30;;
69087;SDS011;56190;43.562;5.036;2023-11-19T01:16:11;8.88;;;5.63;;
69087;SDS011;56190;43.562;5.036;2023-11-19T01:18:37;7.20;;;5.63;;
69087;SDS011;56190;43.562;5.036;2023-11-19T01:21:03;7.03;;;5.40;;
69087;SDS011;56190;43.562;5.036;2023-11-19T01:23:28;8.38;;;5.30;;
69087;SDS011;56190;43.562;5.036;2023-11-19T01:25:54;7.13;;;5.40;;
69087;SDS011;56190;43.562;5.036;2023-11-19T01:28:19;6.85;;;4.88;;
69087;SDS011;56190;43.562;5.036;2023-11-19T01:30:44;7.95;;;5.65;;
69087;SDS011;56190;43.562;5.036;2023-11-19T01:33:09;7.80;;;5.78;;
69087;SDS011;56190;43.562;5.036;2023-11-19T01:35:34;9.02;;;5.20;;
69087;SDS011;56190;43.562;5.036;2023-11-19T01:38:00;7.05;;;5.45;;
69087;SDS011;56190;43.562;5.036;2023-11-19T01:40:25;6.82;;;4.72;;
69087;SDS011;56190;43.562;5.036;2023-11-19T01:42:50;8.30;;;5.38;;
69087;SDS011;56190;43.562;5.036;2023-11-19T01:45:37;7.53;;;5.60;;
69087;SDS011;56190;43.562;5.036;2023-11-19T01:48:02;8.32;;;5.38;;
69087;SDS011;56190;43.562;5.036;2023-11-19T01:50:30;16.67;;;10.55;;
69087;SDS011;56190;43.562;5.036;2023-11-19T01:52:55;20.20;;;12.45;;
69087;SDS011;56190;43.562;5.036;2023-11-19T01:55:25;11.73;;;7.63;;
69087;SDS011;56190;43.562;5.036;2023-11-19T01:57:50;10.00;;;6.88;;
69087;SDS011;56190;43.562;5.036;2023-11-19T02:00:17;11.00;;;8.00;;
69087;SDS011;56190;43.562;5.036;2023-11-19T02:02:44;13.38;;;9.10;;
69087;SDS011;56190;43.562;5.036;2023-11-19T02:05:10;11.25;;;7.75;;
69087;SDS011;56190;43.562;5.036;2023-11-19T02:07:36;8.32;;;6.38;;
69087;SDS011;56190;43.562;5.036;2023-11-19T02:10:01;9.63;;;6.22;;
69087;SDS011;56190;43.562;5.036;2023-11-19T02:12:28;7.47;;;5.60;;
69087;SDS011;56190;43.562;5.036;2023-11-19T02:14:53;9.57;;;5.97;;
69087;SDS011;56190;43.562;5.036;2023-11-19T02:17:27;6.45;;;5.30;;
69087;SDS011;56190;43.562;5.036;2023-11-19T02:19:52;7.55;;;5.57;;
69087;SDS011;56190;43.562;5.036;2023-11-19T02:22:18;6.93;;;5.60;;
69087;SDS011;56190;43.562;5.036;2023-11-19T02:24:43;8.13;;;5.70;;
69087;SDS011;56190;43.562;5.036;2023-11-19T02:27:10;12.00;;;6.93;;
69087;SDS011;56190;43.562;5.036;2023-11-19T02:29:40;10.30;;;7.60;;
69087;SDS011;56190;43.562;5.036;2023-11-19T02:32:05;11.68;;;7.57;;
69087;SDS011;56190;43.562;5.036;2023-11-19T02:34:34;9.40;;;7.15;;
69087;SDS011;56190;43.562;5.036;2023-11-19T02:36:59;9.73;;;6.28;;
69087;SDS011;56190;43.562;5.036;2023-11-19T02:39:24;9.15;;;6.70;;
69087;SDS011;56190;43.562;5.036;2023-11-19T02:41:51;8.27;;;5.85;;
69087;SDS011;56190;43.562;5.036;2023-11-19T02:44:18;8.60;;;5.85;;
69087;SDS011;56190;43.562;5.036;2023-11-19T02:46:43;8.32;;;5.63;;
69087;SDS011;56190;43.562;5.036;2023-11-19T02:49:08;7.75;;;5.20;;
69087;SDS011;56190;43.562;5.036;2023-11-19T02:51:34;7.15;;;5.40;;
69087;SDS011;56190;43.562;5.036;2023-11-19T02:54:03;6.75;;;5.30;;
69087;SDS011;56190;43.562;5.036;2023-11-19T02:56:28;8.25;;;5.05;;
69087;SDS011;56190;43.562;5.036;2023-11-19T02:58:59;7.32;;;4.90;;
69087;SDS011;56190;43.562;5.036;2023-11-19T03:01:25;7.55;;;5.50;;
69087;SDS011;56190;43.562;5.036;2023-11-19T03:03:58;7.57;;;5.40;;
69087;SDS011;56190;43.562;5.036;2023-11-19T03:06:24;9.93;;;5.32;;
69087;SDS011;56190;43.562;5.036;2023-11-19T03:08:49;7.63;;;5.68;;
69087;SDS011;56190;43.562;5.036;2023-11-19T03:11:15;7.35;;;5.43;;
69087;SDS011;56190;43.562;5.036;2023-11-19T03:13:40;6.82;;;5.20;;
69087;SDS011;56190;43.562;5.036;2023-11-19T03:16:06;8.57;;;5.45;;
69087;SDS011;56190;43.562;5.036;2023-11-19T03:18:31;7.53;;;5.35;;
69087;SDS011;56190;43.562;5.036;2023-11-19T03:20:56;8.07;;;5.20;;
69087;SDS011;56190;43.562;5.036;2023-11-19T03:23:23;5.88;;;4.97;;
69087;SDS011;56190;43.562;5.036;2023-11-19T03:25:49;9.30;;;5.70;;
69087;SDS011;56190;43.562;5.036;2023-11-19T03:28:14;7.05;;;4.70;;
69087;SDS011;56190;43.562;5.036;2023-11-19T03:30:39;6.85;;;4.97;;
69087;SDS011;56190;43.562;5.036;2023-11-19T03:33:05;7.00;;;5.40;;
69087;SDS011;56190;43.562;5.036;2023-11-19T03:35:30;5.93;;;4.78;;
69087;SDS011;56190;43.562;5.036;2023-11-19T03:37:56;7.70;;;5.15;;
69087;SDS011;56190;43.562;5.036;2023-11-19T03:40:21;5.97;;;4.35;;
69087;SDS011;56190;43.562;5.036;2023-11-19T03:42:47;7.30;;;4.88;;
69087;SDS011;56190;43.562;5.036;2023-11-19T03:45:12;6.95;;;4.72;;
69087;SDS011;56190;43.562;5.036;2023-11-19T03:47:38;5.85;;;4.50;;
69087;SDS011;56190;43.562;5.036;2023-11-19T03:50:04;9.02;;;4.78;;
69087;SDS011;56190;43.562;5.036;2023-11-19T03:52:29;6.57;;;4.68;;
69087;SDS011;56190;43.562;5.036;2023-11-19T03:54:55;7.93;;;5.20;;
69087;SDS011;56190;43.562;5.036;2023-11-19T03:57:21;7.70;;;5.28;;
69087;SDS011;56190;43.562;5.036;2023-11-19T03:59:47;7.60;;;5.47;;
69087;SDS011;56190;43.562;5.036;2023-11-19T04:02:12;6.93;;;4.97;;
69087;SDS011;56190;43.562;5.036;2023-11-19T04:04:37;7.30;;;5.32;;
69087;SDS011;56190;43.562;5.036;2023-11-19T04:07:04;6.38;;;4.82;;
69087;SDS011;56190;43.562;5.036;2023-11-19T04:09:29;5.72;;;4.95;;
69087;SDS011;56190;43.562;5.036;2023-11-19T04:11:55;8.07;;;5.05;;
69087;SDS011;56190;43.562;5.036;2023-11-19T04:14:20;6.78;;;5.10;;
69087;SDS011;56190;43.562;5.036;2023-11-19T04:16:45;6.30;;;4.80;;
69087;SDS011;56190;43.562;5.036;2023-11-19T04:19:10;5.93;;;4.65;;
69087;SDS011;56190;43.562;5.036;2023-11-19T04:21:36;6.97;;;4.88;;
69087;SDS011;56190;43.562;5.036;2023-11-19T04:24:01;5.93;;;4.55;;
69087;SDS011;56190;43.562;5.036;2023-11-19T04:26:26;6.65;;;4.60;;
69087;SDS011;56190;43.562;5.036;2023-11-19T04:28:51;6.00;;;4.40;;
69087;SDS011;56190;43.562;5.036;2023-11-19T04:31:17;6.47;;;4.65;;
69087;SDS011;56190;43.562;5.036;2023-11-19T04:33:42;6.07;;;4.78;;
69087;SDS011;56190;43.562;5.036;2023-11-19T04:36:08;5.97;;;4.38;;
69087;SDS011;56190;43.562;5.036;2023-11-19T04:38:34;6.05;;;4.57;;
69087;SDS011;56190;43.562;5.036;2023-11-19T04:40:59;7.15;;;4.68;;
69087;SDS011;56190;43.562;5.036;2023-11-19T04:43:25;6.35;;;4.53;;
69087;SDS011;56190;43.562;5.036;2023-11-19T04:45:50;7.70;;;4.65;;
69087;SDS011;56190;43.562;5.036;2023-11-19T04:48:15;7.43;;;5.28;;
69087;SDS011;56190;43.562;5.036;2023-11-19T04:50:41;5.43;;;4.78;;
69087;SDS011;56190;43.562;5.036;2023-11-19T04:53:06;8.27;;;5.63;;
69087;SDS011;56190;43.562;5.036;2023-11-19T04:55:31;7.95;;;5.90;;
69087;SDS011;56190;43.562;5.036;2023-11-19T04:57:56;6.43;;;5.13;;
69087;SDS011;56190;43.562;5.036;2023-11-19T05:00:22;6.63;;;5.10;;
69087;SDS011;56190;43.562;5.036;2023-11-19T05:02:47;7.88;;;4.93;;
69087;SDS011;56190;43.562;5.036;2023-11-19T05:05:12;7.82;;;5.55;;
69087;SDS011;56190;43.562;5.036;2023-11-19T05:07:37;8.60;;;5.40;;
69087;SDS011;56190;43.562;5.036;2023-11-19T05:10:03;6.95;;;4.55;;
69087;SDS011;56190;43.562;5.036;2023-11-19T05:12:29;7.18;;;5.15;;
69087;SDS011;56190;43.562;5.036;2023-11-19T05:14:54;6.55;;;4.90;;
69087;SDS011;56190;43.562;5.036;2023-11-19T05:17:20;9.48;;;5.20;;
69087;SDS011;56190;43.562;5.036;2023-11-19T05:19:45;6.60;;;4.78;;
69087;SDS011;56190;43.562;5.036;2023-11-19T05:22:11;6.43;;;4.88;;
69087;SDS011;56190;43.562;5.036;2023-11-19T05:24:37;7.13;;;4.97;;
69087;SDS011;56190;43.562;5.036;2023-11-19T05:27:02;9.27;;;5.68;;
69087;SDS011;56190;43.562;5.036;2023-11-19T05:29:27;7.13;;;4.95;;
69087;SDS011;56190;43.562;5.036;2023-11-19T05:31:53;7.57;;;5.03;;
69087;SDS011;56190;43.562;5.036;2023-11-19T05:34:20;8.63;;;5.15;;
69087;SDS011;56190;43.562;5.036;2023-11-19T05:36:45;8.45;;;5.55;;
69087;SDS011;56190;43.562;5.036;2023-11-19T05:39:10;6.57;;;5.10;;
69087;SDS011;56190;43.562;5.036;2023-11-19T05:41:36;7.97;;;5.18;;
69087;SDS011;56190;43.562;5.036;2023-11-19T05:44:01;5.68;;;4.53;;
69087;SDS011;56190;43.562;5.036;2023-11-19T05:46:26;6.95;;;4.90;;
69087;SDS011;56190;43.562;5.036;2023-11-19T05:48:52;5.53;;;4.43;;
69087;SDS011;56190;43.562;5.036;2023-11-19T05:51:17;6.53;;;4.18;;
69087;SDS011;56190;43.562;5.036;2023-11-19T05:53:43;6.20;;;4.15;;
69087;SDS011;56190;43.562;5.036;2023-11-19T05:56:08;6.82;;;4.53;;
69087;SDS011;56190;43.562;5.036;2023-11-19T05:58:34;11.70;;;4.43;;
69087;SDS011;56190;43.562;5.036;2023-11-19T06:01:01;8.13;;;5.45;;
69087;SDS011;56190;43.562;5.036;2023-11-19T06:03:26;8.27;;;6.00;;
69087;SDS011;56190;43.562;5.036;2023-11-19T06:05:52;6.88;;;5.07;;
69087;SDS011;56190;43.562;5.036;2023-11-19T06:08:17;7.28;;;4.38;;
69087;SDS011;56190;43.562;5.036;2023-11-19T06:10:43;6.25;;;4.00;;
69087;SDS011;56190;43.562;5.036;2023-11-19T06:13:08;6.10;;;4.10;;
69087;SDS011;56190;43.562;5.036;2023-11-19T06:15:36;6.70;;;3.97;;
69087;SDS011;56190;43.562;5.036;2023-11-19T06:18:01;71.40;;;12.50;;
69087;SDS011;56190;43.562;5.036;2023-11-19T06:20:28;30.58;;;10.95;;
69087;SDS011;56190;43.562;5.036;2023-11-19T06:22:54;21.83;;;9.60;;
69087;SDS011;56190;43.562;5.036;2023-11-19T06:25:19;19.05;;;9.02;;
69087;SDS011;56190;43.562;5.036;2023-11-19T06:27:44;15.73;;;8.82;;
69087;SDS011;56190;43.562;5.036;2023-11-19T06:30:10;16.08;;;9.15;;
69087;SDS011;56190;43.562;5.036;2023-11-19T06:32:35;16.52;;;8.65;;
69087;SDS011;56190;43.562;5.036;2023-11-19T06:35:00;12.23;;;7.72;;
69087;SDS011;56190;43.562;5.036;2023-11-19T06:37:26;16.25;;;8.02;;
69087;SDS011;56190;43.562;5.036;2023-11-19T06:39:52;12.43;;;7.50;;
69087;SDS011;56190;43.562;5.036;2023-11-19T06:42:17;12.88;;;6.20;;
69087;SDS011;56190;43.562;5.036;2023-11-19T06:44:42;8.73;;;4.78;;
69087;SDS011;56190;43.562;5.036;2023-11-19T06:47:08;8.60;;;3.83;;
69087;SDS011;56190;43.562;5.036;2023-11-19T06:49:33;4.80;;;3.80;;
69087;SDS011;56190;43.562;5.036;2023-11-19T06:51:58;5.03;;;3.45;;
69087;SDS011;56190;43.562;5.036;2023-11-19T06:54:24;7.45;;;3.42;;
69087;SDS011;56190;43.562;5.036;2023-11-19T06:56:49;6.72;;;3.72;;
69087;SDS011;56190;43.562;5.036;2023-11-19T06:59:14;5.93;;;3.88;;
69087;SDS011;56190;43.562;5.036;2023-11-19T07:01:40;6.43;;;3.55;;
69087;SDS011;56190;43.562;5.036;2023-11-19T07:04:10;4.95;;;3.58;;
69087;SDS011;56190;43.562;5.036;2023-11-19T07:06:35;5.00;;;3.47;;
69087;SDS011;56190;43.562;5.036;2023-11-19T07:09:01;5.45;;;4.10;;
69087;SDS011;56190;43.562;5.036;2023-11-19T07:11:37;7.47;;;4.13;;
69087;SDS011;56190;43.562;5.036;2023-11-19T07:14:03;5.75;;;4.28;;
69087;SDS011;56190;43.562;5.036;2023-11-19T07:16:29;6.22;;;4.00;;
69087;SDS011;56190;43.562;5.036;2023-11-19T07:18:54;7.43;;;4.25;;
69087;SDS011;56190;43.562;5.036;2023-11-19T07:21:19;4.60;;;3.67;;
69087;SDS011;56190;43.562;5.036;2023-11-19T07:23:45;5.05;;;4.00;;
69087;SDS011;56190;43.562;5.036;2023-11-19T07:26:11;5.00;;;4.00;;
69087;SDS011;56190;43.562;5.036;2023-11-19T07:28:37;5.75;;;3.90;;
69087;SDS011;56190;43.562;5.036;2023-11-19T07:31:02;5.35;;;3.90;;
69087;SDS011;56190;43.562;5.036;2023-11-19T07:33:27;5.75;;;3.65;;
69087;SDS011;56190;43.562;5.036;2023-11-19T07:35:54;6.15;;;3.80;;
69087;SDS011;56190;43.562;5.036;2023-11-19T07:38:20;4.50;;;3.47;;
69087;SDS011;56190;43.562;5.036;2023-11-19T07:40:45;6.28;;;4.03;;
69087;SDS011;56190;43.562;5.036;2023-11-19T07:43:10;5.15;;;4.18;;
69087;SDS011;56190;43.562;5.036;2023-11-19T07:45:35;6.63;;;4.53;;
69087;SDS011;56190;43.562;5.036;2023-11-19T07:48:01;6.18;;;3.80;;
69087;SDS011;56190;43.562;5.036;2023-11-19T07:50:26;5.00;;;3.42;;
69087;SDS011;56190;43.562;5.036;2023-11-19T07:52:52;6.03;;;3.70;;
69087;SDS011;56190;43.562;5.036;2023-11-19T07:55:17;5.50;;;4.05;;
69087;SDS011;56190;43.562;5.036;2023-11-19T07:57:42;5.90;;;3.78;;
69087;SDS011;56190;43.562;5.036;2023-11-19T08:00:08;5.75;;;3.67;;
69087;SDS011;56190;43.562;5.036;2023-11-19T08:02:37;4.28;;;3.30;;
69087;SDS011;56190;43.562;5.036;2023-11-19T08:05:02;4.72;;;3.33;;
69087;SDS011;56190;43.562;5.036;2023-11-19T08:07:28;4.43;;;3.17;;
69087;SDS011;56190;43.562;5.036;2023-11-19T08:09:53;6.63;;;3.10;;
69087;SDS011;56190;43.562;5.036;2023-11-19T08:12:18;3.33;;;2.97;;
69087;SDS011;56190;43.562;5.036;2023-11-19T08:14:43;8.30;;;3.83;;
69087;SDS011;56190;43.562;5.036;2023-11-19T08:17:09;5.35;;;3.60;;
69087;SDS011;56190;43.562;5.036;2023-11-19T08:19:34;5.55;;;3.10;;
69087;SDS011;56190;43.562;5.036;2023-11-19T08:22:00;4.32;;;3.47;;
69087;SDS011;56190;43.562;5.036;2023-11-19T08:24:25;5.85;;;3.20;;
69087;SDS011;56190;43.562;5.036;2023-11-19T08:26:50;4.35;;;3.30;;
69087;SDS011;56190;43.562;5.036;2023-11-19T08:29:16;5.60;;;3.90;;
69087;SDS011;56190;43.562;5.036;2023-11-19T08:31:41;7.88;;;4.32;;
69087;SDS011;56190;43.562;5.036;2023-11-19T08:34:07;7.25;;;5.15;;
69087;SDS011;56190;43.562;5.036;2023-11-19T08:36:34;7.45;;;4.95;;
69087;SDS011;56190;43.562;5.036;2023-11-19T08:38:59;7.22;;;4.80;;
69087;SDS011;56190;43.562;5.036;2023-11-19T08:41:24;8.65;;;6.30;;
69087;SDS011;56190;43.562;5.036;2023-11-19T08:43:50;9.07;;;5.38;;
69087;SDS011;56190;43.562;5.036;2023-11-19T08:46:16;14.38;;;8.25;;
69087;SDS011;56190;43.562;5.036;2023-11-19T08:48:42;7.80;;;4.85;;
69087;SDS011;56190;43.562;5.036;2023-11-19T08:51:07;6.57;;;3.88;;
69087;SDS011;56190;43.562;5.036;2023-11-19T08:53:32;5.35;;;3.30;;
69087;SDS011;56190;43.562;5.036;2023-11-19T08:55:57;9.55;;;5.55;;
69087;SDS011;56190;43.562;5.036;2023-11-19T08:58:23;7.53;;;4.20;;
69087;SDS011;56190;43.562;5.036;2023-11-19T09:00:48;5.82;;;3.60;;
69087;SDS011;56190;43.562;5.036;2023-11-19T09:03:13;6.32;;;3.80;;
69087;SDS011;56190;43.562;5.036;2023-11-19T09:05:39;5.32;;;3.38;;
69087;SDS011;56190;43.562;5.036;2023-11-19T09:08:04;3.97;;;3.10;;
69087;SDS011;56190;43.562;5.036;2023-11-19T09:10:29;4.65;;;3.50;;
69087;SDS011;56190;43.562;5.036;2023-11-19T09:12:55;6.55;;;3.63;;
69087;SDS011;56190;43.562;5.036;2023-11-19T09:15:20;5.05;;;3.35;;
69087;SDS011;56190;43.562;5.036;2023-11-19T09:17:45;5.35;;;3.33;;
69087;SDS011;56190;43.562;5.036;2023-11-19T09:20:10;5.75;;;4.03;;
69087;SDS011;56190;43.562;5.036;2023-11-19T09:22:39;4.70;;;3.38;;
69087;SDS011;56190;43.562;5.036;2023-11-19T09:25:05;4.57;;;3.22;;
69087;SDS011;56190;43.562;5.036;2023-11-19T09:27:30;5.50;;;3.67;;
69087;SDS011;56190;43.562;5.036;2023-11-19T09:30:01;6.65;;;3.53;;
69087;SDS011;56190;43.562;5.036;2023-11-19T09:32:27;7.35;;;3.72;;
69087;SDS011;56190;43.562;5.036;2023-11-19T09:34:52;5.80;;;3.85;;
69087;SDS011;56190;43.562;5.036;2023-11-19T09:37:18;5.13;;;3.78;;
69087;SDS011;56190;43.562;5.036;2023-11-19T09:39:43;8.38;;;5.50;;
69087;SDS011;56190;43.562;5.036;2023-11-19T09:42:09;4.82;;;3.78;;
69087;SDS011;56190;43.562;5.036;2023-11-19T09:44:34;5.90;;;3.92;;
69087;SDS011;56190;43.562;5.036;2023-11-19T09:46:59;4.00;;;3.60;;
69087;SDS011;56190;43.562;5.036;2023-11-19T09:49:25;4.72;;;3.55;;
69087;SDS011;56190;43.562;5.036;2023-11-19T09:51:51;5.68;;;3.70;;
69087;SDS011;56190;43.562;5.036;2023-11-19T09:54:16;5.47;;;3.55;;
69087;SDS011;56190;43.562;5.036;2023-11-19T09:56:42;4.32;;;3.60;;
69087;SDS011;56190;43.562;5.036;2023-11-19T09:59:08;6.30;;;3.45;;
69087;SDS011;56190;43.562;5.036;2023-11-19T10:01:35;4.47;;;3.38;;
69087;SDS011;56190;43.562;5.036;2023-11-19T10:04:00;4.95;;;3.60;;
69087;SDS011;56190;43.562;5.036;2023-11-19T10:06:26;5.60;;;3.85;;
69087;SDS011;56190;43.562;5.036;2023-11-19T10:08:52;4.95;;;3.92;;
69087;SDS011;56190;43.562;5.036;2023-11-19T10:11:17;6.70;;;3.67;;
69087;SDS011;56190;43.562;5.036;2023-11-19T10:13:43;4.28;;;3.17;;
69087;SDS011;56190;43.562;5.036;2023-11-19T10:16:10;5.88;;;4.00;;
69087;SDS011;56190;43.562;5.036;2023-11-19T10:18:37;4.75;;;3.63;;
69087;SDS011;56190;43.562;5.036;2023-11-19T10:21:06;4.53;;;3.40;;
69087;SDS011;56190;43.562;5.036;2023-11-19T10:23:31;3.80;;;2.90;;
69087;SDS011;56190;43.562;5.036;2023-11-19T10:26:12;4.93;;;3.40;;
69087;SDS011;56190;43.562;5.036;2023-11-19T10:28:38;4.65;;;2.60;;
69087;SDS011;56190;43.562;5.036;2023-11-19T10:31:04;4.68;;;3.65;;
69087;SDS011;56190;43.562;5.036;2023-11-19T10:33:30;5.72;;;3.80;;
69087;SDS011;56190;43.562;5.036;2023-11-19T10:35:56;5.28;;;3.40;;
69087;SDS011;56190;43.562;5.036;2023-11-19T10:38:22;4.00;;;3.00;;
69087;SDS011;56190;43.562;5.036;2023-11-19T10:40:47;4.70;;;3.40;;
69087;SDS011;56190;43.562;5.036;2023-11-19T10:43:13;4.72;;;3.30;;
69087;SDS011;56190;43.562;5.036;2023-11-19T10:45:38;4.60;;;3.20;;
69087;SDS011;56190;43.562;5.036;2023-11-19T10:48:04;3.47;;;2.88;;
69087;SDS011;56190;43.562;5.036;2023-11-19T10:50:35;4.80;;;4.05;;
69087;SDS011;56190;43.562;5.036;2023-11-19T10:53:01;4.65;;;3.45;;
69087;SDS011;56190;43.562;5.036;2023-11-19T10:55:27;5.32;;;4.03;;
69087;SDS011;56190;43.562;5.036;2023-11-19T10:57:53;5.45;;;3.17;;
69087;SDS011;56190;43.562;5.036;2023-11-19T11:00:19;5.20;;;4.00;;
69087;SDS011;56190;43.562;5.036;2023-11-19T11:02:46;5.10;;;3.67;;
69087;SDS011;56190;43.562;5.036;2023-11-19T11:05:13;5.47;;;4.07;;
69087;SDS011;56190;43.562;5.036;2023-11-19T11:07:39;5.20;;;3.88;;
69087;SDS011;56190;43.562;5.036;2023-11-19T11:10:05;4.60;;;3.70;;
69087;SDS011;56190;43.562;5.036;2023-11-19T11:12:32;5.68;;;3.80;;
69087;SDS011;56190;43.562;5.036;2023-11-19T11:15:00;6.80;;;4.07;;
69087;SDS011;56190;43.562;5.036;2023-11-19T11:17:26;5.00;;;3.70;;
69087;SDS011;56190;43.562;5.036;2023-11-19T11:19:53;5.80;;;3.70;;
69087;SDS011;56190;43.562;5.036;2023-11-19T11:22:18;4.80;;;3.55;;
69087;SDS011;56190;43.562;5.036;2023-11-19T11:24:53;5.68;;;2.97;;
69087;SDS011;56190;43.562;5.036;2023-11-19T11:27:30;4.13;;;3.00;;
69087;SDS011;56190;43.562;5.036;2023-11-19T11:37:38;3.72;;;2.72;;
69087;SDS011;56190;43.562;5.036;2023-11-19T11:40:04;4.80;;;2.85;;
69087;SDS011;56190;43.562;5.036;2023-11-19T11:42:35;3.03;;;2.65;;
69087;SDS011;56190;43.562;5.036;2023-11-19T11:45:08;5.45;;;3.58;;
69087;SDS011;56190;43.562;5.036;2023-11-19T11:50:03;3.90;;;2.50;;
69087;SDS011;56190;43.562;5.036;2023-11-19T11:52:30;5.35;;;2.80;;
69087;SDS011;56190;43.562;5.036;2023-11-19T11:54:59;3.20;;;2.42;;
69087;SDS011;56190;43.562;5.036;2023-11-19T11:57:28;5.45;;;3.38;;
69087;SDS011;56190;43.562;5.036;2023-11-19T12:00:01;4.45;;;3.00;;
69087;SDS011;56190;43.562;5.036;2023-11-19T12:02:28;4.53;;;2.55;;
69087;SDS011;56190;43.562;5.036;2023-11-19T12:04:54;6.38;;;2.45;;
69087;SDS011;56190;43.562;5.036;2023-11-19T12:07:23;3.05;;;2.35;;
69087;SDS011;56190;43.562;5.036;2023-11-19T12:10:07;3.60;;;2.40;;
69087;SDS011;56190;43.562;5.036;2023-11-19T12:12:33;3.80;;;2.53;;
69087;SDS011;56190;43.562;5.036;2023-11-19T12:15:01;3.42;;;2.13;;
69087;SDS011;56190;43.562;5.036;2023-11-19T12:20:00;3.50;;;2.35;;
69087;SDS011;56190;43.562;5.036;2023-11-19T12:22:26;3.67;;;2.55;;
69087;SDS011;56190;43.562;5.036;2023-11-19T12:24:52;2.75;;;2.10;;
69087;SDS011;56190;43.562;5.036;2023-11-19T12:27:17;3.63;;;2.55;;
69087;SDS011;56190;43.562;5.036;2023-11-19T12:29:43;4.90;;;2.53;;
69087;SDS011;56190;43.562;5.036;2023-11-19T12:32:09;3.10;;;2.50;;
69087;SDS011;56190;43.562;5.036;2023-11-19T12:34:34;3.45;;;2.30;;
69087;SDS011;56190;43.562;5.036;2023-11-19T12:37:03;3.20;;;2.25;;
69087;SDS011;56190;43.562;5.036;2023-11-19T12:39:31;3.17;;;2.33;;
69087;SDS011;56190;43.562;5.036;2023-11-19T12:41:57;3.35;;;2.40;;
69087;SDS011;56190;43.562;5.036;2023-11-19T12:44:27;3.45;;;2.65;;
69087;SDS011;56190;43.562;5.036;2023-11-19T12:47:02;3.25;;;2.83;;
69087;SDS011;56190;43.562;5.036;2023-11-19T12:49:27;4.78;;;3.10;;
69087;SDS011;56190;43.562;5.036;2023-11-19T12:51:53;4.05;;;3.22;;
69087;SDS011;56190;43.562;5.036;2023-11-19T12:54:18;5.28;;;2.92;;
69087;SDS011;56190;43.562;5.036;2023-11-19T12:56:52;3.80;;;3.15;;
69087;SDS011;56190;43.562;5.036;2023-11-19T12:59:18;5.20;;;3.40;;
69087;SDS011;56190;43.562;5.036;2023-11-19T13:01:53;4.45;;;3.30;;
69087;SDS011;56190;43.562;5.036;2023-11-19T13:04:19;4.28;;;3.03;;
69087;SDS011;56190;43.562;5.036;2023-11-19T13:06:47;3.78;;;2.65;;
69087;SDS011;56190;43.562;5.036;2023-11-19T13:09:25;4.80;;;3.10;;
69087;SDS011;56190;43.562;5.036;2023-11-19T13:11:51;3.88;;;2.85;;
69087;SDS011;56190;43.562;5.036;2023-11-19T13:14:17;3.95;;;2.30;;
69087;SDS011;56190;43.562;5.036;2023-11-19T13:16:42;3.45;;;2.50;;
69087;SDS011;56190;43.562;5.036;2023-11-19T13:19:08;4.35;;;2.40;;
69087;SDS011;56190;43.562;5.036;2023-11-19T13:21:36;3.95;;;2.70;;
69087;SDS011;56190;43.562;5.036;2023-11-19T13:24:03;4.93;;;2.28;;
69087;SDS011;56190;43.562;5.036;2023-11-19T13:26:28;3.75;;;1.90;;
69087;SDS011;56190;43.562;5.036;2023-11-19T13:28:53;5.50;;;1.75;;
69087;SDS011;56190;43.562;5.036;2023-11-19T13:31:19;2.67;;;1.90;;
69087;SDS011;56190;43.562;5.036;2023-11-19T13:33:44;2.25;;;1.63;;
69087;SDS011;56190;43.562;5.036;2023-11-19T13:36:09;2.13;;;1.80;;
69087;SDS011;56190;43.562;5.036;2023-11-19T13:38:35;3.78;;;1.92;;
69087;SDS011;56190;43.562;5.036;2023-11-19T13:41:01;2.53;;;1.98;;
69087;SDS011;56190;43.562;5.036;2023-11-19T13:43:26;1.85;;;1.63;;
69087;SDS011;56190;43.562;5.036;2023-11-19T13:45:53;2.63;;;1.52;;
69087;SDS011;56190;43.562;5.036;2023-11-19T13:48:18;2.53;;;1.65;;
69087;SDS011;56190;43.562;5.036;2023-11-19T13:50:44;2.00;;;1.60;;
69087;SDS011;56190;43.562;5.036;2023-11-19T13:53:10;4.25;;;2.20;;
69087;SDS011;56190;43.562;5.036;2023-11-19T13:55:35;5.97;;;3.63;;
69087;SDS011;56190;43.562;5.036;2023-11-19T13:58:00;3.90;;;2.40;;
69087;SDS011;56190;43.562;5.036;2023-11-19T14:00:26;4.47;;;2.72;;
69087;SDS011;56190;43.562;5.036;2023-11-19T14:02:51;3.85;;;1.55;;
69087;SDS011;56190;43.562;5.036;2023-11-19T14:05:17;2.95;;;1.98;;
69087;SDS011;56190;43.562;5.036;2023-11-19T14:07:43;2.75;;;2.08;;
69087;SDS011;56190;43.562;5.036;2023-11-19T14:10:08;2.33;;;1.70;;
69087;SDS011;56190;43.562;5.036;2023-11-19T14:12:36;2.42;;;1.95;;
69087;SDS011;56190;43.562;5.036;2023-11-19T14:15:02;4.82;;;3.08;;
69087;SDS011;56190;43.562;5.036;2023-11-19T14:17:27;3.22;;;2.20;;
69087;SDS011;56190;43.562;5.036;2023-11-19T14:19:53;2.90;;;2.15;;
69087;SDS011;56190;43.562;5.036;2023-11-19T14:22:18;3.72;;;2.65;;
69087;SDS011;56190;43.562;5.036;2023-11-19T14:24:43;4.22;;;2.40;;
69087;SDS011;56190;43.562;5.036;2023-11-19T14:27:09;2.45;;;1.98;;
69087;SDS011;56190;43.562;5.036;2023-11-19T14:29:35;3.53;;;1.80;;
69087;SDS011;56190;43.562;5.036;2023-11-19T14:32:00;3.17;;;2.17;;
69087;SDS011;56190;43.562;5.036;2023-11-19T14:34:26;3.83;;;2.22;;
69087;SDS011;56190;43.562;5.036;2023-11-19T14:36:51;3.35;;;2.05;;
69087;SDS011;56190;43.562;5.036;2023-11-19T14:39:17;3.65;;;2.47;;
69087;SDS011;56190;43.562;5.036;2023-11-19T14:41:42;3.28;;;2.10;;
69087;SDS011;56190;43.562;5.036;2023-11-19T14:44:08;3.92;;;2.08;;
69087;SDS011;56190;43.562;5.036;2023-11-19T14:46:34;2.90;;;2.03;;
69087;SDS011;56190;43.562;5.036;2023-11-19T14:49:00;3.85;;;2.10;;
69087;SDS011;56190;43.562;5.036;2023-11-19T14:51:25;3.97;;;2.33;;